createdAt,value
2023-04-14T00:01:36.109Z,5.20
2023-04-14T00:04:03.383Z,5.20
2023-04-14T00:06:30.831Z,5.20
2023-04-14T00:08:58.042Z,5.10
2023-04-14T00:11:24.939Z,5.10
2023-04-14T00:13:51.573Z,5.10
2023-04-14T00:16:18.510Z,5.10
2023-04-14T00:18:45.429Z,5.10
2023-04-14T00:21:13.263Z,5.10
2023-04-14T00:23:40.015Z,5.20
2023-04-14T00:26:07.608Z,5.10
2023-04-14T00:28:34.436Z,5.10
2023-04-14T00:31:01.118Z,5.10
2023-04-14T00:33:27.799Z,5.10
2023-04-14T00:35:54.588Z,5.10
2023-04-14T00:38:21.290Z,5.10
2023-04-14T00:40:47.957Z,5.00
2023-04-14T00:43:19.248Z,5.10
2023-04-14T00:45:48.707Z,5.10
2023-04-14T00:48:17.421Z,5.10
2023-04-14T00:50:44.844Z,5.10
2023-04-14T00:53:12.662Z,5.10
2023-04-14T00:55:40.337Z,5.00
2023-04-14T00:58:07.466Z,5.10
2023-04-14T01:00:35.353Z,5.20
2023-04-14T01:03:02.199Z,5.20
2023-04-14T01:05:28.940Z,5.20
2023-04-14T01:07:55.843Z,5.20
2023-04-14T01:10:26.733Z,5.10
2023-04-14T01:13:16.005Z,5.10
2023-04-14T01:15:57.294Z,5.00
2023-04-14T01:18:56.738Z,5.00
2023-04-14T01:21:31.350Z,5.00
2023-04-14T01:24:16.756Z,4.90
2023-04-14T01:26:45.353Z,5.00
2023-04-14T01:29:37.312Z,5.00
2023-04-14T01:32:11.466Z,5.00
2023-04-14T01:35:00.572Z,5.00
2023-04-14T01:37:40.195Z,5.00
2023-04-14T01:40:12.791Z,5.00
2023-04-14T01:42:52.262Z,5.00
2023-04-14T01:45:28.889Z,5.00
2023-04-14T01:47:56.470Z,4.90
2023-04-14T01:50:24.024Z,4.80
2023-04-14T01:52:54.172Z,4.90
2023-04-14T01:55:23.473Z,4.90
2023-04-14T01:57:53.263Z,4.90
2023-04-14T02:00:21.420Z,4.90
2023-04-14T02:02:52.289Z,4.90
2023-04-14T02:05:21.580Z,4.80
2023-04-14T02:07:49.901Z,4.80
2023-04-14T02:10:19.255Z,4.80
2023-04-14T02:12:47.037Z,4.80
2023-04-14T02:15:17.209Z,4.80
2023-04-14T02:17:46.746Z,4.80
2023-04-14T02:20:14.480Z,4.90
2023-04-14T02:22:41.376Z,4.90
2023-04-14T02:25:08.474Z,4.90
2023-04-14T02:27:53.773Z,4.90
2023-04-14T02:30:30.181Z,4.90
2023-04-14T02:33:09.028Z,4.80
2023-04-14T02:35:44.492Z,4.90
2023-04-14T02:38:21.731Z,4.90
2023-04-14T02:40:49.026Z,4.80
2023-04-14T02:43:29.171Z,4.80
2023-04-14T02:45:56.699Z,4.80
2023-04-14T02:48:26.870Z,4.80
2023-04-14T02:50:55.938Z,4.80
2023-04-14T02:53:24.840Z,4.80
2023-04-14T02:55:52.240Z,4.80
2023-04-14T02:58:19.767Z,4.80
2023-04-14T03:00:47.140Z,4.80
2023-04-14T03:03:15.060Z,4.80
2023-04-14T03:05:43.796Z,4.80
2023-04-14T03:08:12.548Z,4.70
2023-04-14T03:10:39.692Z,4.70
2023-04-14T03:13:10.482Z,4.70
2023-04-14T03:15:38.697Z,4.70
2023-04-14T03:18:06.280Z,4.70
2023-04-14T03:20:33.505Z,4.70
2023-04-14T03:23:04.957Z,4.60
2023-04-14T03:25:35.059Z,4.60
2023-04-14T03:28:03.776Z,4.60
2023-04-14T03:30:34.313Z,4.60
2023-04-14T03:33:07.026Z,4.60
2023-04-14T03:35:36.174Z,4.50
2023-04-14T03:38:08.491Z,4.50
2023-04-14T03:40:38.581Z,4.50
2023-04-14T03:43:09.874Z,4.50
2023-04-14T03:45:39.028Z,4.50
2023-04-14T03:48:08.578Z,4.50
2023-04-14T03:50:40.316Z,4.50
2023-04-14T03:53:09.601Z,4.50
2023-04-14T03:55:37.565Z,4.40
2023-04-14T03:58:06.240Z,4.50
2023-04-14T04:00:33.206Z,4.50
2023-04-14T04:03:01.226Z,4.50
2023-04-14T04:05:29.452Z,4.50
2023-04-14T04:08:02.146Z,4.50
2023-04-14T04:10:33.237Z,4.60
2023-04-14T04:13:04.570Z,4.60
2023-04-14T04:15:32.702Z,4.60
2023-04-14T04:18:00.632Z,4.60
2023-04-14T04:20:29.422Z,4.50
2023-04-14T04:22:57.614Z,4.50
2023-04-14T04:25:33.525Z,4.40
2023-04-14T04:28:02.074Z,4.50
2023-04-14T04:30:30.050Z,4.50
2023-04-14T04:32:57.038Z,4.60
2023-04-14T04:35:24.575Z,4.50
2023-04-14T04:37:53.483Z,4.50
2023-04-14T04:40:20.209Z,4.40
2023-04-14T04:42:46.863Z,4.50
2023-04-14T04:45:14.721Z,4.50
2023-04-14T04:47:41.403Z,4.50
2023-04-14T04:50:08.292Z,4.50
2023-04-14T04:52:35.039Z,4.50
2023-04-14T04:55:01.650Z,4.50
2023-04-14T04:57:30.773Z,4.60
2023-04-14T04:59:57.683Z,4.50
2023-04-14T05:02:24.907Z,4.50
2023-04-14T05:04:52.104Z,4.50
2023-04-14T05:07:19.698Z,4.50
2023-04-14T05:09:46.355Z,4.50
2023-04-14T05:12:13.636Z,4.50
2023-04-14T05:14:40.268Z,4.50
2023-04-14T05:17:06.937Z,4.60
2023-04-14T05:19:33.599Z,4.50
2023-04-14T05:22:00.330Z,4.50
2023-04-14T05:24:27.404Z,4.60
2023-04-14T05:27:12.442Z,4.60
2023-04-14T05:29:40.780Z,4.60
2023-04-14T05:32:08.592Z,4.70
2023-04-14T05:34:35.665Z,4.70
2023-04-14T05:37:03.056Z,4.80
2023-04-14T05:39:29.778Z,4.80
2023-04-14T05:41:56.760Z,4.80
2023-04-14T05:44:23.875Z,4.80
2023-04-14T05:46:50.646Z,4.90
2023-04-14T05:49:17.646Z,4.90
2023-04-14T05:51:46.176Z,4.90
2023-04-14T05:54:12.902Z,5.00
2023-04-14T05:56:39.611Z,5.10
2023-04-14T05:59:06.398Z,5.10
2023-04-14T06:01:33.106Z,5.10
2023-04-14T06:04:00.390Z,5.10
2023-04-14T06:06:30.482Z,5.10
2023-04-14T06:08:57.143Z,5.20
2023-04-14T06:11:25.856Z,5.20
2023-04-14T06:13:52.813Z,5.20
2023-04-14T06:16:19.511Z,5.20
2023-04-14T06:18:46.138Z,5.30
2023-04-14T06:21:14.226Z,5.30
2023-04-14T06:23:41.034Z,5.40
2023-04-14T06:26:09.459Z,5.40
2023-04-14T06:28:36.468Z,5.40
2023-04-14T06:31:03.123Z,5.50
2023-04-14T06:33:30.235Z,5.60
2023-04-14T06:35:57.189Z,5.50
2023-04-14T06:38:27.306Z,5.60
2023-04-14T06:40:54.017Z,5.50
2023-04-14T06:43:20.663Z,5.50
2023-04-14T06:45:47.348Z,5.50
2023-04-14T06:48:15.178Z,5.50
2023-04-14T06:50:43.701Z,5.60
2023-04-14T06:53:11.107Z,5.70
2023-04-14T06:55:41.744Z,5.70
2023-04-14T06:58:08.441Z,5.80
2023-04-14T07:00:35.110Z,5.80
2023-04-14T07:03:03.527Z,5.90
2023-04-14T07:05:31.930Z,6.10
2023-04-14T07:08:00.169Z,6.30
2023-04-14T07:10:28.298Z,6.40
2023-04-14T07:12:54.955Z,6.50
2023-04-14T07:15:23.706Z,6.50
2023-04-14T07:17:50.588Z,6.50
2023-04-14T07:20:17.383Z,6.50
2023-04-14T07:22:46.256Z,6.50
2023-04-14T07:25:14.275Z,6.60
2023-04-14T07:27:47.300Z,6.50
2023-04-14T07:30:23.092Z,6.60
2023-04-14T07:32:49.856Z,6.50
2023-04-14T07:35:16.653Z,6.50
2023-04-14T07:37:44.286Z,6.70
2023-04-14T07:40:11.093Z,6.60
2023-04-14T07:42:37.735Z,6.70
2023-04-14T07:45:04.743Z,6.70
2023-04-14T07:47:31.640Z,6.80
2023-04-14T07:49:58.360Z,7.00
2023-04-14T07:52:25.119Z,6.90
2023-04-14T07:54:51.796Z,6.70
2023-04-14T07:57:18.557Z,6.70
2023-04-14T07:59:45.220Z,6.60
2023-04-14T08:02:12.122Z,6.80
2023-04-14T08:04:40.833Z,7.10
2023-04-14T08:07:07.597Z,7.40
2023-04-14T08:09:34.796Z,7.70
2023-04-14T08:12:01.877Z,8.10
2023-04-14T08:14:28.558Z,8.00
2023-04-14T08:16:55.226Z,8.40
2023-04-14T08:19:22.792Z,8.70
2023-04-14T08:21:52.019Z,8.30
2023-04-14T08:24:18.722Z,8.50
2023-04-14T08:26:46.051Z,8.60
2023-04-14T08:29:12.707Z,8.30
2023-04-14T08:31:40.347Z,8.10
2023-04-14T08:34:07.023Z,8.10
2023-04-14T08:36:33.679Z,8.00
2023-04-14T08:39:00.818Z,7.90
2023-04-14T08:41:33.258Z,7.90
2023-04-14T08:44:00.162Z,7.80
2023-04-14T08:46:28.456Z,7.90
2023-04-14T08:49:03.252Z,8.00
2023-04-14T08:51:42.120Z,7.90
2023-04-14T08:54:10.525Z,8.00
2023-04-14T08:56:39.774Z,8.10
2023-04-14T08:59:07.626Z,7.80
2023-04-14T09:01:36.316Z,8.00
2023-04-14T09:04:06.873Z,8.00
2023-04-14T09:06:37.421Z,8.00
2023-04-14T09:09:08.712Z,8.20
2023-04-14T09:11:36.319Z,8.30
2023-04-14T09:14:04.268Z,8.50
2023-04-14T09:16:31.939Z,8.50
2023-04-14T09:19:07.243Z,8.50
2023-04-14T09:21:52.111Z,8.50
2023-04-14T09:24:31.761Z,8.80
2023-04-14T09:27:05.139Z,8.80
2023-04-14T09:29:33.216Z,8.90
2023-04-14T09:32:00.074Z,8.90
2023-04-14T09:34:26.957Z,9.00
2023-04-14T09:37:07.161Z,8.80
2023-04-14T09:39:35.726Z,8.80
2023-04-14T09:42:04.180Z,8.90
2023-04-14T09:44:30.946Z,8.70
2023-04-14T09:47:04.613Z,8.50
2023-04-14T09:49:33.078Z,8.60
2023-04-14T09:52:05.737Z,8.30
2023-04-14T09:54:32.608Z,8.40
2023-04-14T09:56:59.409Z,8.30
2023-04-14T09:59:37.239Z,8.30
2023-04-14T10:02:06.454Z,8.50
2023-04-14T10:04:35.532Z,8.50
2023-04-14T10:07:06.680Z,8.70
2023-04-14T10:09:37.778Z,8.50
2023-04-14T10:12:15.961Z,8.70
2023-04-14T10:14:44.280Z,8.90
2023-04-14T10:17:11.765Z,9.00
2023-04-14T10:19:39.018Z,9.00
2023-04-14T10:22:06.390Z,9.20
2023-04-14T10:24:33.345Z,8.80
2023-04-14T10:27:04.801Z,8.70
2023-04-14T10:29:31.835Z,8.60
2023-04-14T10:32:05.286Z,8.50
2023-04-14T10:34:33.384Z,8.50
2023-04-14T10:37:18.480Z,8.90
2023-04-14T10:39:57.893Z,9.20
2023-04-14T10:42:27.014Z,9.60
2023-04-14T10:45:09.515Z,9.90
2023-04-14T10:47:42.124Z,10.30
2023-04-14T10:50:13.593Z,10.80
2023-04-14T10:52:50.669Z,11.00
2023-04-14T10:55:17.816Z,10.30
2023-04-14T10:57:46.176Z,10.60
2023-04-14T11:00:25.243Z,10.90
2023-04-14T11:02:56.004Z,10.70
2023-04-14T11:05:23.115Z,10.60
2023-04-14T11:07:55.892Z,10.50
2023-04-14T11:10:22.836Z,10.40
2023-04-14T11:12:56.900Z,10.70
2023-04-14T11:15:24.019Z,10.90
2023-04-14T11:17:53.809Z,11.10
2023-04-14T11:20:22.386Z,11.30
2023-04-14T11:22:52.549Z,11.60
2023-04-14T11:25:23.941Z,11.90
2023-04-14T11:27:52.062Z,11.90
2023-04-14T11:30:19.868Z,11.60
2023-04-14T11:32:55.364Z,11.30
2023-04-14T11:35:26.437Z,10.90
2023-04-14T11:37:55.751Z,10.90
2023-04-14T11:40:24.263Z,10.90
2023-04-14T11:42:58.628Z,11.20
2023-04-14T11:45:29.746Z,11.30
2023-04-14T11:48:04.737Z,11.40
2023-04-14T11:50:34.548Z,11.70
2023-04-14T11:53:02.821Z,11.60
2023-04-14T11:55:30.221Z,11.50
2023-04-14T11:57:57.881Z,11.00
2023-04-14T12:00:27.035Z,11.20
2023-04-14T12:02:53.980Z,11.00
2023-04-14T12:05:30.028Z,11.30
2023-04-14T12:08:02.792Z,11.50
2023-04-14T12:10:30.408Z,11.90
2023-04-14T12:13:05.253Z,11.90
2023-04-14T12:15:36.680Z,12.10
2023-04-14T12:18:09.182Z,12.10
2023-04-14T12:20:54.267Z,12.00
2023-04-14T12:23:21.464Z,11.70
2023-04-14T12:25:51.924Z,11.80
2023-04-14T12:28:19.535Z,11.40
2023-04-14T12:30:54.173Z,11.10
2023-04-14T12:33:24.276Z,10.60
2023-04-14T12:35:51.439Z,10.60
2023-04-14T12:38:18.296Z,10.70
2023-04-14T12:40:47.706Z,10.60
2023-04-14T12:43:17.339Z,10.50
2023-04-14T12:45:49.978Z,10.80
2023-04-14T12:48:17.536Z,11.20
2023-04-14T12:50:44.867Z,11.20
2023-04-14T12:53:32.192Z,11.00
2023-04-14T12:56:07.112Z,11.00
2023-04-14T12:58:39.628Z,10.70
2023-04-14T13:01:07.868Z,10.40
2023-04-14T13:03:52.926Z,10.50
2023-04-14T13:06:21.844Z,10.30
2023-04-14T13:08:53.540Z,10.10
2023-04-14T13:11:21.588Z,9.70
2023-04-14T13:13:48.385Z,10.00
2023-04-14T13:16:17.796Z,10.30
2023-04-14T13:18:47.474Z,10.60
2023-04-14T13:21:14.224Z,10.70
2023-04-14T13:23:42.320Z,10.90
2023-04-14T13:26:09.509Z,10.90
2023-04-14T13:28:37.172Z,10.80
2023-04-14T13:31:03.960Z,10.50
2023-04-14T13:33:31.094Z,10.10
2023-04-14T13:35:57.872Z,10.00
2023-04-14T13:38:24.661Z,9.90
2023-04-14T13:40:51.328Z,9.80
2023-04-14T13:43:18.992Z,9.70
2023-04-14T13:45:47.003Z,9.50
2023-04-14T13:48:14.410Z,9.30
2023-04-14T13:50:41.280Z,9.20
2023-04-14T13:53:08.069Z,9.10
2023-04-14T13:55:36.077Z,9.00
2023-04-14T13:58:03.210Z,9.10
2023-04-14T14:00:29.981Z,9.20
2023-04-14T14:02:56.959Z,9.30
2023-04-14T14:05:25.483Z,9.40
2023-04-14T14:07:52.743Z,9.50
2023-04-14T14:10:19.604Z,9.60
2023-04-14T14:12:46.279Z,9.80
2023-04-14T14:15:13.145Z,9.70
2023-04-14T14:17:40.593Z,9.70
2023-04-14T14:20:09.534Z,9.60
2023-04-14T14:22:36.472Z,9.60
2023-04-14T14:25:15.003Z,9.50
2023-04-14T14:27:53.705Z,9.50
2023-04-14T14:30:20.379Z,9.60
2023-04-14T14:32:47.432Z,9.70
2023-04-14T14:35:14.200Z,9.90
2023-04-14T14:37:42.040Z,10.00
2023-04-14T14:40:10.632Z,10.10
2023-04-14T14:42:37.410Z,10.00
2023-04-14T14:45:04.867Z,10.10
2023-04-14T14:47:33.598Z,10.10
2023-04-14T14:50:03.439Z,10.20
2023-04-14T14:52:33.683Z,10.40
2023-04-14T14:55:02.073Z,10.50
2023-04-14T14:57:30.320Z,10.60
2023-04-14T14:59:57.241Z,10.70
2023-04-14T15:02:25.434Z,10.70
2023-04-14T15:04:52.421Z,10.60
2023-04-14T15:07:20.314Z,10.90
2023-04-14T15:09:47.308Z,11.00
2023-04-14T15:12:13.970Z,10.80
2023-04-14T15:14:40.927Z,10.80
2023-04-14T15:17:08.090Z,10.90
2023-04-14T15:19:34.823Z,10.90
2023-04-14T15:22:01.621Z,10.60
2023-04-14T15:24:29.858Z,10.60
2023-04-14T15:26:56.628Z,10.60
2023-04-14T15:29:26.635Z,10.50
2023-04-14T15:31:53.790Z,10.40
2023-04-14T15:34:21.591Z,10.40
2023-04-14T15:36:48.454Z,10.20
2023-04-14T15:39:15.291Z,10.10
2023-04-14T15:41:41.973Z,10.20
2023-04-14T15:44:08.694Z,10.30
2023-04-14T15:46:35.354Z,10.30
2023-04-14T15:49:02.101Z,10.10
2023-04-14T15:51:28.789Z,10.20
2023-04-14T15:53:55.537Z,10.30
2023-04-14T15:56:23.546Z,10.50
2023-04-14T15:58:50.518Z,10.50
2023-04-14T16:01:17.399Z,10.30
2023-04-14T16:03:44.254Z,10.30
2023-04-14T16:06:12.957Z,10.40
2023-04-14T16:08:39.663Z,10.40
2023-04-14T16:11:06.328Z,10.50
2023-04-14T16:13:33.092Z,10.60
2023-04-14T16:15:59.841Z,10.70
2023-04-14T16:18:26.647Z,10.80
2023-04-14T16:20:55.795Z,10.70
2023-04-14T16:23:22.444Z,10.80
2023-04-14T16:25:49.999Z,10.90
2023-04-14T16:28:16.721Z,10.80
2023-04-14T16:30:44.208Z,10.70
2023-04-14T16:33:10.919Z,10.80
2023-04-14T16:35:37.605Z,10.60
2023-04-14T16:38:08.192Z,10.60
2023-04-14T16:40:35.912Z,10.60
2023-04-14T16:43:03.114Z,10.60
2023-04-14T16:45:32.837Z,10.60
2023-04-14T16:47:59.648Z,10.60
2023-04-14T16:50:26.900Z,10.60
2023-04-14T16:52:53.772Z,10.60
2023-04-14T16:55:20.481Z,10.70
2023-04-14T16:57:47.343Z,10.60
2023-04-14T17:00:14.409Z,10.60
2023-04-14T17:02:41.332Z,10.50
2023-04-14T17:05:11.366Z,10.60
2023-04-14T17:07:38.852Z,10.50
2023-04-14T17:10:06.002Z,10.50
2023-04-14T17:12:32.738Z,10.50
2023-04-14T17:15:00.571Z,10.40
2023-04-14T17:17:28.558Z,10.40
2023-04-14T17:19:56.869Z,10.40
2023-04-14T17:22:24.575Z,10.40
2023-04-14T17:24:52.080Z,10.30
2023-04-14T17:27:18.987Z,10.30
2023-04-14T17:29:47.798Z,10.20
2023-04-14T17:32:15.712Z,10.20
2023-04-14T17:34:45.352Z,10.10
2023-04-14T17:37:12.135Z,10.10
2023-04-14T17:39:38.913Z,10.00
2023-04-14T17:42:05.679Z,10.10
2023-04-14T17:44:34.344Z,10.00
2023-04-14T17:47:02.776Z,9.90
2023-04-14T17:49:30.760Z,9.80
2023-04-14T17:51:57.784Z,9.80
2023-04-14T17:54:25.393Z,9.80
2023-04-14T17:56:52.589Z,9.70
2023-04-14T17:59:20.060Z,9.70
2023-04-14T18:01:46.807Z,9.70
2023-04-14T18:04:13.673Z,9.60
2023-04-14T18:06:40.464Z,9.50
2023-04-14T18:09:07.292Z,9.40
2023-04-14T18:11:34.064Z,9.20
2023-04-14T18:14:00.849Z,9.10
2023-04-14T18:16:27.889Z,9.20
2023-04-14T18:18:55.086Z,9.10
2023-04-14T18:21:21.994Z,9.20
2023-04-14T18:24:47.936Z,9.20
2023-04-14T18:26:35.555Z,9.20
2023-04-14T18:29:02.646Z,9.10
2023-04-14T18:31:29.623Z,9.10
2023-04-14T18:34:06.608Z,9.00
2023-04-14T18:36:33.460Z,9.10
2023-04-14T18:39:00.526Z,9.10
2023-04-14T18:41:28.046Z,9.10
2023-04-14T18:43:54.952Z,9.10
2023-04-14T18:46:22.076Z,9.10
2023-04-14T18:48:49.274Z,9.00
2023-04-14T18:51:16.641Z,9.00
2023-04-14T18:53:45.232Z,9.00
2023-04-14T18:56:12.378Z,8.90
2023-04-14T18:58:39.927Z,8.90
2023-04-14T19:01:08.234Z,8.90
2023-04-14T19:03:35.517Z,8.90
2023-04-14T19:06:02.286Z,8.90
2023-04-14T19:08:28.975Z,8.90
2023-04-14T19:10:55.676Z,8.90
2023-04-14T19:13:23.999Z,8.90
2023-04-14T19:15:50.670Z,8.80
2023-04-14T19:18:17.387Z,8.70
2023-04-14T19:20:45.619Z,8.70
2023-04-14T19:23:12.475Z,8.70
2023-04-14T19:25:41.837Z,8.70
2023-04-14T19:28:16.240Z,8.70
2023-04-14T19:30:44.369Z,8.60
2023-04-14T19:33:11.813Z,8.60
2023-04-14T19:35:40.868Z,8.60
2023-04-14T19:38:08.585Z,8.60
2023-04-14T19:40:35.523Z,8.60
2023-04-14T19:43:02.747Z,8.60
2023-04-14T19:45:29.503Z,8.60
2023-04-14T19:47:56.563Z,8.60
2023-04-14T19:50:24.003Z,8.60
2023-04-14T19:52:52.073Z,8.60
2023-04-14T19:55:20.598Z,8.60
2023-04-14T19:57:47.240Z,8.60
2023-04-14T20:00:15.615Z,8.60
2023-04-14T20:02:42.380Z,8.60
2023-04-14T20:05:09.867Z,8.60
2023-04-14T20:07:36.699Z,8.60
2023-04-14T20:10:04.103Z,8.50
2023-04-14T20:12:30.857Z,8.40
2023-04-14T20:14:58.299Z,8.40
2023-04-14T20:17:27.083Z,8.30
2023-04-14T20:19:53.898Z,8.30
2023-04-14T20:22:20.583Z,8.20
2023-04-14T20:24:47.629Z,8.30
2023-04-14T20:27:14.347Z,8.30
2023-04-14T20:29:41.121Z,8.30
2023-04-14T20:32:07.878Z,8.40
2023-04-14T20:34:35.420Z,8.30
2023-04-14T20:37:02.666Z,8.40
2023-04-14T20:39:29.453Z,8.40
2023-04-14T20:41:56.520Z,8.30
2023-04-14T20:44:23.674Z,8.30
2023-04-14T20:46:50.502Z,8.20
2023-04-14T20:49:17.507Z,8.10
2023-04-14T20:51:46.678Z,8.10
2023-04-14T20:54:14.008Z,8.10
2023-04-14T20:56:40.765Z,8.10
2023-04-14T20:59:07.477Z,8.00
2023-04-14T21:01:34.385Z,8.00
2023-04-14T21:04:01.292Z,8.00
2023-04-14T21:06:28.152Z,7.90
2023-04-14T21:08:54.843Z,7.90
2023-04-14T21:11:21.516Z,7.80
2023-04-14T21:15:28.237Z,7.80
2023-04-14T21:16:35.663Z,7.80
2023-04-14T21:19:04.058Z,7.70
2023-04-14T21:21:31.817Z,7.70
2023-04-14T21:23:58.680Z,7.70
2023-04-14T21:26:26.230Z,7.60
2023-04-14T21:28:52.862Z,7.60
2023-04-14T21:31:19.568Z,7.60
2023-04-14T21:33:46.770Z,7.50
2023-04-14T21:36:13.670Z,7.50
2023-04-14T21:38:40.370Z,7.60
2023-04-14T21:41:10.709Z,7.60
2023-04-14T21:43:38.764Z,7.50
2023-04-14T21:46:05.727Z,7.40
2023-04-14T21:48:32.715Z,7.40
2023-04-14T21:50:59.567Z,7.40
2023-04-14T21:53:26.280Z,7.30
2023-04-14T21:55:58.791Z,7.40
2023-04-14T21:58:36.524Z,7.30
2023-04-14T22:01:03.492Z,7.30
2023-04-14T22:03:30.396Z,7.30
2023-04-14T22:05:57.127Z,7.30
2023-04-14T22:08:24.080Z,7.30
2023-04-14T22:10:52.367Z,7.30
2023-04-14T22:13:19.070Z,7.40
2023-04-14T22:15:45.798Z,7.40
2023-04-14T22:18:12.574Z,7.30
2023-04-14T22:20:39.673Z,7.30
2023-04-14T22:23:06.685Z,7.20
2023-04-14T22:25:34.669Z,7.20
2023-04-14T22:28:01.677Z,7.20
2023-04-14T22:30:28.458Z,7.20
2023-04-14T22:32:56.035Z,7.20
2023-04-14T22:35:22.921Z,7.20
2023-04-14T22:37:49.603Z,7.10
2023-04-14T22:40:16.890Z,7.10
2023-04-14T22:42:43.562Z,7.10
2023-04-14T22:45:10.336Z,7.00
2023-04-14T22:47:37.778Z,7.00
2023-04-14T22:50:05.825Z,7.00
2023-04-14T22:52:32.558Z,7.00
2023-04-14T22:54:59.241Z,6.90
2023-04-14T22:57:26.873Z,6.90
2023-04-14T22:59:53.764Z,6.90
2023-04-14T23:02:21.350Z,6.80
2023-04-14T23:04:48.347Z,6.90
2023-04-14T23:07:15.540Z,6.80
2023-04-14T23:09:42.251Z,6.80
2023-04-14T23:12:09.938Z,6.80
2023-04-14T23:14:36.749Z,6.80
2023-04-14T23:17:03.425Z,6.80
2023-04-14T23:19:32.962Z,6.70
2023-04-14T23:21:59.703Z,6.60
2023-04-14T23:24:26.722Z,6.60
2023-04-14T23:26:53.460Z,6.60
2023-04-14T23:29:20.091Z,6.60
2023-04-14T23:31:46.845Z,6.60
2023-04-14T23:34:13.567Z,6.50
2023-04-14T23:36:40.266Z,6.40
2023-04-14T23:39:06.953Z,6.40
2023-04-14T23:41:34.340Z,6.40
2023-04-14T23:44:01.336Z,6.40
2023-04-14T23:46:28.364Z,6.40
2023-04-14T23:48:55.093Z,6.40
2023-04-14T23:51:23.176Z,6.30
2023-04-14T23:53:50.372Z,6.30
2023-04-14T23:56:17.725Z,6.30
2023-04-14T23:58:44.556Z,6.30
